Time,TemperatureF,DewpointF,PressureIn,WindDirection,WindDirectionDegrees,WindSpeedMPH,WindSpeedGustMPH,Humidity,HourlyPrecipIn,Conditions,Clouds,dailyrainin,SoftwareType,DateUTC
2013-02-25 00:04:00,41.1,37.2,29.94,WNW,282,0.0,0.0,86,0.00,,,0.19,Wunderground v.1.15,2013-02-25 05:04:00,
2013-02-25 00:09:00,41.6,37.7,29.93,WNW,282,0.0,0.0,86,0.00,,,0.00,Wunderground v.1.15,2013-02-25 05:09:00,
2013-02-25 00:14:00,41.9,37.7,29.93,WNW,282,0.0,0.0,85,0.00,,,0.00,Wunderground v.1.15,2013-02-25 05:14:00,
2013-02-25 00:19:00,42.2,38.0,29.94,WNW,282,0.0,0.0,85,0.00,,,0.00,Wunderground v.1.15,2013-02-25 05:19:00,
2013-02-25 00:24:00,42.4,37.6,29.93,WNW,282,0.0,0.0,83,0.00,,,0.00,Wunderground v.1.15,2013-02-25 05:24:00,
2013-02-25 00:29:00,42.8,38.3,29.94,WNW,282,0.0,0.0,84,0.00,,,0.00,Wunderground v.1.15,2013-02-25 05:29:00,
2013-02-25 00:34:00,42.8,38.6,29.93,WNW,282,0.0,0.0,85,0.00,,,0.00,Wunderground v.1.15,2013-02-25 05:34:00,
2013-02-25 00:39:00,42.5,38.0,29.92,WNW,282,0.0,0.0,84,0.00,,,0.00,Wunderground v.1.15,2013-02-25 05:39:00,
2013-02-25 00:44:00,42.4,37.9,29.92,WNW,282,0.0,0.0,84,0.00,,,0.00,Wunderground v.1.15,2013-02-25 05:44:00,
2013-02-25 00:49:00,42.2,38.0,29.92,WNW,282,0.0,0.0,85,0.00,,,0.00,Wunderground v.1.15,2013-02-25 05:49:00,
2013-02-25 00:54:00,41.9,38.0,29.93,WNW,282,0.0,0.0,86,0.00,,,0.00,Wunderground v.1.15,2013-02-25 05:54:00,
2013-02-25 00:59:00,41.5,37.3,29.94,WNW,282,0.0,0.0,85,0.00,,,0.00,Wunderground v.1.15,2013-02-25 05:59:00,
2013-02-25 01:05:00,40.7,36.5,29.94,WNW,282,0.0,0.0,85,0.00,,,0.00,Wunderground v.1.15,2013-02-25 06:05:00,
2013-02-25 01:10:00,40.1,36.5,29.94,WNW,282,0.0,0.0,87,0.00,,,0.00,Wunderground v.1.15,2013-02-25 06:10:00,
2013-02-25 01:15:00,40.0,37.0,29.94,WNW,282,0.0,0.0,89,0.00,,,0.00,Wunderground v.1.15,2013-02-25 06:15:00,
2013-02-25 01:20:00,40.0,37.3,29.94,WNW,282,0.0,0.0,90,0.00,,,0.00,Wunderground v.1.15,2013-02-25 06:20:00,
2013-02-25 01:25:00,40.0,37.0,29.94,WNW,282,0.0,0.0,89,0.00,,,0.00,Wunderground v.1.15,2013-02-25 06:25:00,
2013-02-25 01:30:00,40.0,37.0,29.94,WNW,282,0.0,0.0,89,0.00,,,0.00,Wunderground v.1.15,2013-02-25 06:30:00,
2013-02-25 01:35:00,39.9,36.9,29.93,WNW,282,0.0,0.0,89,0.00,,,0.00,Wunderground v.1.15,2013-02-25 06:35:00,
2013-02-25 01:40:00,39.8,37.1,29.93,WNW,282,0.0,0.0,90,0.00,,,0.00,Wunderground v.1.15,2013-02-25 06:40:00,
2013-02-25 01:45:00,39.8,37.1,29.93,WNW,282,0.0,0.0,90,0.00,,,0.00,Wunderground v.1.15,2013-02-25 06:45:00,
2013-02-25 01:50:00,39.8,37.1,29.92,WNW,282,0.0,0.0,90,0.00,,,0.00,Wunderground v.1.15,2013-02-25 06:50:00,
2013-02-25 01:55:00,39.7,37.0,29.92,WNW,282,0.0,0.0,90,0.00,,,0.00,Wunderground v.1.15,2013-02-25 06:55:00,
2013-02-25 02:00:00,39.6,36.9,29.92,WNW,282,0.0,0.0,90,0.00,,,0.00,Wunderground v.1.15,2013-02-25 07:00:00,
2013-02-25 02:06:00,39.4,36.4,29.91,WNW,282,0.0,0.0,89,0.00,,,0.00,Wunderground v.1.15,2013-02-25 07:06:00,
2013-02-25 02:11:00,39.0,36.3,29.92,WNW,282,0.0,0.0,90,0.00,,,0.00,Wunderground v.1.15,2013-02-25 07:11:00,
2013-02-25 02:16:00,38.8,36.4,29.92,WNW,282,0.0,0.0,91,0.00,,,0.00,Wunderground v.1.15,2013-02-25 07:16:00,
2013-02-25 02:22:00,38.8,36.4,29.93,WNW,282,0.0,0.0,91,0.00,,,0.00,Wunderground v.1.15,2013-02-25 07:22:00,
2013-02-25 02:27:00,39.0,36.6,29.93,WNW,282,0.0,0.0,91,0.00,,,0.00,Wunderground v.1.15,2013-02-25 07:27:00,
2013-02-25 02:32:00,39.1,36.7,29.93,WNW,282,0.0,0.0,91,0.00,,,0.00,Wunderground v.1.15,2013-02-25 07:32:00,
2013-02-25 02:37:00,39.3,37.2,29.93,WNW,282,0.0,0.0,92,0.00,,,0.00,Wunderground v.1.15,2013-02-25 07:37:00,
2013-02-25 02:42:00,39.4,37.3,29.94,WNW,282,0.0,0.0,92,0.00,,,0.00,Wunderground v.1.15,2013-02-25 07:42:00,
2013-02-25 02:47:00,39.5,37.4,29.94,WNW,282,0.0,0.0,92,0.00,,,0.00,Wunderground v.1.15,2013-02-25 07:47:00,
2013-02-25 02:52:00,39.5,37.4,29.95,WNW,282,0.0,0.0,92,0.00,,,0.00,Wunderground v.1.15,2013-02-25 07:52:00,
2013-02-25 02:57:00,39.6,37.2,29.95,WNW,282,0.0,0.0,91,0.00,,,0.00,Wunderground v.1.15,2013-02-25 07:57:00,
2013-02-25 03:02:00,39.6,37.5,29.94,WNW,282,0.0,0.0,92,0.00,,,0.00,Wunderground v.1.15,2013-02-25 08:02:00,
2013-02-25 03:07:00,39.6,37.5,29.94,WNW,282,0.0,0.0,92,0.00,,,0.00,Wunderground v.1.15,2013-02-25 08:07:00,
2013-02-25 03:12:00,39.7,37.6,29.94,WNW,282,0.0,0.0,92,0.00,,,0.00,Wunderground v.1.15,2013-02-25 08:12:00,
2013-02-25 03:17:00,39.6,37.2,29.94,WNW,282,0.0,0.0,91,0.00,,,0.00,Wunderground v.1.15,2013-02-25 08:17:00,
2013-02-25 03:22:00,39.3,36.9,29.94,WNW,282,0.0,0.0,91,0.00,,,0.00,Wunderground v.1.15,2013-02-25 08:22:00,
2013-02-25 03:27:00,39.1,36.7,29.94,WNW,282,0.0,0.0,91,0.00,,,0.00,Wunderground v.1.15,2013-02-25 08:27:00,
2013-02-25 03:32:00,39.1,36.7,29.94,WNW,282,0.0,0.0,91,0.00,,,0.00,Wunderground v.1.15,2013-02-25 08:32:00,
2013-02-25 03:37:00,39.1,37.0,29.94,WNW,282,0.0,0.0,92,0.00,,,0.00,Wunderground v.1.15,2013-02-25 08:37:00,
2013-02-25 03:42:00,39.2,37.1,29.94,WNW,282,0.0,0.0,92,0.00,,,0.00,Wunderground v.1.15,2013-02-25 08:42:00,
2013-02-25 03:47:00,39.3,37.4,29.94,WNW,282,0.0,0.0,93,0.00,,,0.00,Wunderground v.1.15,2013-02-25 08:47:00,
2013-02-25 03:52:00,39.4,37.5,29.94,WNW,282,0.0,0.0,93,0.00,,,0.00,Wunderground v.1.15,2013-02-25 08:52:00,
2013-02-25 03:57:00,40.1,38.5,29.94,WNW,282,0.0,0.0,94,0.00,,,0.00,Wunderground v.1.15,2013-02-25 08:57:00,
2013-02-25 04:02:00,40.9,38.8,29.94,WNW,282,0.0,0.0,92,0.00,,,0.00,Wunderground v.1.15,2013-02-25 09:02:00,
2013-02-25 04:07:00,41.7,39.0,29.94,WNW,284,0.0,0.0,90,0.00,,,0.00,Wunderground v.1.15,2013-02-25 09:07:00,
2013-02-25 04:12:00,42.4,38.8,29.94,WNW,285,0.0,2.0,87,0.00,,,0.00,Wunderground v.1.15,2013-02-25 09:12:00,
2013-02-25 04:18:00,43.1,38.3,29.94,East,80,0.0,5.0,83,0.00,,,0.00,Wunderground v.1.15,2013-02-25 09:18:00,
2013-02-25 04:23:00,43.7,37.9,29.94,East,96,0.0,1.0,80,0.00,,,0.00,Wunderground v.1.15,2013-02-25 09:23:00,
2013-02-25 04:28:00,44.2,37.8,29.93,East,90,0.0,4.0,78,0.00,,,0.00,Wunderground v.1.15,2013-02-25 09:28:00,
2013-02-25 04:33:00,44.6,37.2,29.93,East,92,0.0,0.0,75,0.00,,,0.00,Wunderground v.1.15,2013-02-25 09:33:00,
2013-02-25 04:38:00,44.9,36.8,29.93,ENE,73,0.0,4.0,73,0.00,,,0.00,Wunderground v.1.15,2013-02-25 09:38:00,
2013-02-25 04:43:00,45.2,36.4,29.93,ESE,106,0.0,2.0,71,0.00,,,0.00,Wunderground v.1.15,2013-02-25 09:43:00,
2013-02-25 04:48:00,45.5,36.3,29.93,ESE,106,0.0,2.0,70,0.00,,,0.00,Wunderground v.1.15,2013-02-25 09:48:00,
2013-02-25 04:53:00,45.8,35.5,29.94,East,82,0.0,3.0,67,0.00,,,0.00,Wunderground v.1.15,2013-02-25 09:53:00,
2013-02-25 04:58:00,46.0,35.3,29.94,East,82,0.0,3.0,66,0.00,,,0.00,Wunderground v.1.15,2013-02-25 09:58:00,
2013-02-25 05:03:00,46.2,35.1,29.94,East,79,0.0,2.0,65,0.00,,,0.00,Wunderground v.1.15,2013-02-25 10:03:00,
2013-02-25 05:08:00,46.5,35.0,29.95,East,79,0.0,2.0,64,0.00,,,0.00,Wunderground v.1.15,2013-02-25 10:08:00,
2013-02-25 05:13:00,46.8,34.9,29.95,ESE,107,0.0,4.0,63,0.00,,,0.00,Wunderground v.1.15,2013-02-25 10:13:00,
2013-02-25 05:18:00,47.0,33.8,29.95,East,84,0.0,4.0,60,0.00,,,0.00,Wunderground v.1.15,2013-02-25 10:18:00,
2013-02-25 05:23:00,47.3,33.7,29.95,ENE,73,0.0,2.0,59,0.00,,,0.00,Wunderground v.1.15,2013-02-25 10:23:00,
2013-02-25 05:28:00,47.6,33.5,29.95,East,92,0.0,2.0,58,0.00,,,0.00,Wunderground v.1.15,2013-02-25 10:28:00,
2013-02-25 05:33:00,47.7,33.2,29.95,East,96,0.0,0.0,57,0.00,,,0.00,Wunderground v.1.15,2013-02-25 10:33:00,
2013-02-25 05:38:00,47.9,32.9,29.96,East,80,0.0,4.0,56,0.00,,,0.00,Wunderground v.1.15,2013-02-25 10:38:00,
2013-02-25 05:43:00,48.1,33.1,29.97,East,80,0.0,0.0,56,0.00,,,0.00,Wunderground v.1.15,2013-02-25 10:43:00,
2013-02-25 05:48:00,48.2,32.8,29.98,East,80,0.0,0.0,55,0.00,,,0.00,Wunderground v.1.15,2013-02-25 10:48:00,
2013-02-25 05:53:00,48.2,32.8,29.98,East,80,0.0,0.0,55,0.00,,,0.00,Wunderground v.1.15,2013-02-25 10:53:00,
2013-02-25 05:58:00,48.3,32.9,29.98,East,80,0.0,0.0,55,0.00,,,0.00,Wunderground v.1.15,2013-02-25 10:58:00,
2013-02-25 06:03:00,48.2,32.8,29.98,East,80,0.0,0.0,55,0.00,,,0.00,Wunderground v.1.15,2013-02-25 11:03:00,
2013-02-25 06:08:00,48.2,32.3,29.98,East,82,0.0,0.0,54,0.00,,,0.00,Wunderground v.1.15,2013-02-25 11:08:00,
2013-02-25 06:13:00,48.2,32.3,29.98,East,82,0.0,0.0,54,0.00,,,0.00,Wunderground v.1.15,2013-02-25 11:13:00,
2013-02-25 06:18:00,48.3,31.9,29.98,East,89,0.0,2.0,53,0.00,,,0.00,Wunderground v.1.15,2013-02-25 11:18:00,
2013-02-25 06:23:00,48.3,31.9,29.98,East,90,0.0,0.0,53,0.00,,,0.00,Wunderground v.1.15,2013-02-25 11:23:00,
2013-02-25 06:28:00,48.4,32.0,29.98,SE,136,0.0,4.0,53,0.00,,,0.00,Wunderground v.1.15,2013-02-25 11:28:00,
2013-02-25 06:33:00,48.5,32.1,29.98,SSE,155,0.0,1.0,53,0.00,,,0.00,Wunderground v.1.15,2013-02-25 11:33:00,
2013-02-25 06:38:00,48.5,32.6,29.98,ESE,109,0.0,5.0,54,0.00,,,0.00,Wunderground v.1.15,2013-02-25 11:38:00,
2013-02-25 06:43:00,48.4,32.5,29.98,WNW,289,0.0,4.0,54,0.00,,,0.00,Wunderground v.1.15,2013-02-25 11:43:00,
2013-02-25 06:48:00,48.3,32.4,29.98,ENE,77,2.0,4.0,54,0.00,,,0.00,Wunderground v.1.15,2013-02-25 11:48:00,
2013-02-25 06:53:00,48.2,32.3,29.98,East,96,0.0,2.0,54,0.00,,,0.00,Wunderground v.1.15,2013-02-25 11:53:00,
2013-02-25 06:59:00,48.2,32.3,29.98,East,79,0.0,7.0,54,0.00,,,0.00,Wunderground v.1.15,2013-02-25 11:59:00,
2013-02-25 07:04:00,48.1,32.7,29.99,SE,140,0.0,1.0,55,0.00,,,0.00,Wunderground v.1.15,2013-02-25 12:04:00,
2013-02-25 07:09:00,48.0,32.1,29.99,ESE,110,1.0,5.0,54,0.00,,,0.00,Wunderground v.1.15,2013-02-25 12:09:00,
2013-02-25 07:14:00,48.0,32.1,29.99,SW,218,0.0,2.0,54,0.00,,,0.00,Wunderground v.1.15,2013-02-25 12:14:00,
2013-02-25 07:19:00,47.9,32.0,29.99,East,101,0.0,5.0,54,0.00,,,0.00,Wunderground v.1.15,2013-02-25 12:19:00,
2013-02-25 07:24:00,47.9,32.5,29.99,SSE,167,0.0,3.0,55,0.00,,,0.00,Wunderground v.1.15,2013-02-25 12:24:00,
2013-02-25 07:29:00,47.8,32.4,29.99,ESE,105,1.0,7.0,55,0.00,,,0.00,Wunderground v.1.15,2013-02-25 12:29:00,
2013-02-25 07:34:00,47.7,32.3,30.00,East,85,4.0,6.0,55,0.00,,,0.00,Wunderground v.1.15,2013-02-25 12:34:00,
2013-02-25 07:39:00,47.7,32.3,29.99,ENE,77,0.0,6.0,55,0.00,,,0.00,Wunderground v.1.15,2013-02-25 12:39:00,
2013-02-25 07:44:00,47.6,32.2,29.99,ESE,108,2.0,4.0,55,0.00,,,0.00,Wunderground v.1.15,2013-02-25 12:44:00,
2013-02-25 07:49:00,47.6,32.2,29.99,ENE,71,0.0,5.0,55,0.00,,,0.00,Wunderground v.1.15,2013-02-25 12:49:00,
2013-02-25 07:54:00,47.5,32.1,30.00,SW,214,3.0,5.0,55,0.00,,,0.00,Wunderground v.1.15,2013-02-25 12:54:00,
2013-02-25 07:59:00,47.4,31.6,30.01,East,97,0.0,6.0,54,0.00,,,0.00,Wunderground v.1.15,2013-02-25 12:59:00,
2013-02-25 08:04:00,47.4,31.6,30.02,East,79,0.0,6.0,54,0.00,,,0.00,Wunderground v.1.15,2013-02-25 13:04:00,
2013-02-25 08:10:00,47.4,31.6,30.03,East,85,4.0,7.0,54,0.00,,,0.00,Wunderground v.1.15,2013-02-25 13:10:00,
2013-02-25 08:15:00,47.4,32.0,30.04,SE,130,0.0,5.0,55,0.00,,,0.00,Wunderground v.1.15,2013-02-25 13:15:00,
2013-02-25 08:20:00,47.4,31.6,30.04,ESE,103,0.0,5.0,54,0.00,,,0.00,Wunderground v.1.15,2013-02-25 13:20:00,
2013-02-25 08:25:00,47.4,31.6,30.05,South,186,2.0,3.0,54,0.00,,,0.00,Wunderground v.1.15,2013-02-25 13:25:00,
2013-02-25 08:30:00,47.4,31.6,30.05,ESE,113,1.0,3.0,54,0.00,,,0.00,Wunderground v.1.15,2013-02-25 13:30:00,
2013-02-25 08:35:00,47.4,31.6,30.05,ESE,119,1.0,6.0,54,0.00,,,0.00,Wunderground v.1.15,2013-02-25 13:35:00,
2013-02-25 08:40:00,47.4,31.6,30.05,East,84,0.0,6.0,54,0.00,,,0.00,Wunderground v.1.15,2013-02-25 13:40:00,
2013-02-25 08:45:00,47.3,31.5,30.05,East,80,2.0,4.0,54,0.00,,,0.00,Wunderground v.1.15,2013-02-25 13:45:00,
2013-02-25 08:50:00,47.2,31.4,30.04,SE,135,0.0,6.0,54,0.00,,,0.00,Wunderground v.1.15,2013-02-25 13:50:00,
2013-02-25 08:55:00,47.2,31.8,30.03,East,85,0.0,4.0,55,0.00,,,0.00,Wunderground v.1.15,2013-02-25 13:55:00,
2013-02-25 09:00:00,47.2,32.3,30.03,East,92,2.0,4.0,56,0.00,,,0.00,Wunderground v.1.15,2013-02-25 14:00:00,
2013-02-25 09:05:00,47.1,31.7,30.03,East,95,4.0,5.0,55,0.00,,,0.00,Wunderground v.1.15,2013-02-25 14:05:00,
2013-02-25 09:11:00,46.9,32.0,30.03,East,79,2.0,5.0,56,0.00,,,0.00,Wunderground v.1.15,2013-02-25 14:11:00,
2013-02-25 09:16:00,46.8,31.9,30.02,ESE,111,2.0,5.0,56,0.00,,,0.00,Wunderground v.1.15,2013-02-25 14:16:00,
2013-02-25 09:21:00,46.7,31.8,30.02,ENE,78,4.0,7.0,56,0.00,,,0.00,Wunderground v.1.15,2013-02-25 14:21:00,
2013-02-25 09:26:00,46.7,32.3,30.02,ENE,78,3.0,5.0,57,0.00,,,0.00,Wunderground v.1.15,2013-02-25 14:26:00,
2013-02-25 09:31:00,46.6,32.2,30.03,ENE,75,6.0,7.0,57,0.00,,,0.00,Wunderground v.1.15,2013-02-25 14:31:00,
2013-02-25 09:36:00,46.6,32.2,30.03,ENE,60,3.0,6.0,57,0.00,,,0.00,Wunderground v.1.15,2013-02-25 14:36:00,
2013-02-25 09:41:00,46.7,32.3,30.04,East,84,0.0,6.0,57,0.00,,,0.00,Wunderground v.1.15,2013-02-25 14:41:00,
2013-02-25 09:46:00,46.7,31.8,30.05,East,100,2.0,7.0,56,0.00,,,0.00,Wunderground v.1.15,2013-02-25 14:46:00,
2013-02-25 09:51:00,46.7,31.8,30.05,East,85,6.0,7.0,56,0.00,,,0.00,Wunderground v.1.15,2013-02-25 14:51:00,
2013-02-25 09:56:00,46.7,31.8,30.05,ESE,113,5.0,7.0,56,0.00,,,0.00,Wunderground v.1.15,2013-02-25 14:56:00,
2013-02-25 10:01:00,46.7,31.8,30.05,SE,125,2.0,2.0,56,0.00,,,0.00,Wunderground v.1.15,2013-02-25 15:01:00,
2013-02-25 10:06:00,46.8,31.9,30.05,ENE,78,3.0,4.0,56,0.00,,,0.00,Wunderground v.1.15,2013-02-25 15:06:00,
2013-02-25 10:12:00,46.9,32.4,30.05,East,85,2.0,3.0,57,0.00,,,0.00,Wunderground v.1.15,2013-02-25 15:12:00,
2013-02-25 10:17:00,46.9,32.0,30.05,ENE,73,5.0,5.0,56,0.00,,,0.00,Wunderground v.1.15,2013-02-25 15:17:00,
2013-02-25 10:22:00,46.9,32.0,30.04,East,96,2.0,2.0,56,0.00,,,0.00,Wunderground v.1.15,2013-02-25 15:22:00,
2013-02-25 10:27:00,46.9,32.0,30.04,ENE,76,4.0,6.0,56,0.00,,,0.00,Wunderground v.1.15,2013-02-25 15:27:00,
2013-02-25 10:32:00,46.9,32.0,30.04,East,86,1.0,2.0,56,0.00,,,0.00,Wunderground v.1.15,2013-02-25 15:32:00,
2013-02-25 10:37:00,47.0,32.1,30.04,ENE,78,3.0,6.0,56,0.00,,,0.00,Wunderground v.1.15,2013-02-25 15:37:00,
2013-02-25 10:42:00,47.0,32.1,30.04,East,82,1.0,3.0,56,0.00,,,0.00,Wunderground v.1.15,2013-02-25 15:42:00,
2013-02-25 10:47:00,46.9,32.0,30.04,East,92,0.0,6.0,56,0.00,,,0.00,Wunderground v.1.15,2013-02-25 15:47:00,
2013-02-25 10:52:00,47.0,32.5,30.05,East,89,0.0,2.0,57,0.00,,,0.00,Wunderground v.1.15,2013-02-25 15:52:00,
2013-02-25 10:57:00,47.0,32.1,30.06,East,90,1.0,4.0,56,0.00,,,0.00,Wunderground v.1.15,2013-02-25 15:57:00,
2013-02-25 11:02:00,47.0,32.1,30.06,East,85,0.0,1.0,56,0.00,,,0.00,Wunderground v.1.15,2013-02-25 16:02:00,
2013-02-25 11:07:00,47.1,32.6,30.06,East,99,1.0,5.0,57,0.00,,,0.00,Wunderground v.1.15,2013-02-25 16:07:00,
2013-02-25 11:12:00,47.1,32.6,30.05,East,93,2.0,5.0,57,0.00,,,0.00,Wunderground v.1.15,2013-02-25 16:12:00,
2013-02-25 11:17:00,47.1,32.6,30.05,East,99,0.0,5.0,57,0.00,,,0.00,Wunderground v.1.15,2013-02-25 16:17:00,
2013-02-25 11:23:00,47.1,33.1,30.04,East,84,2.0,6.0,58,0.00,,,0.00,Wunderground v.1.15,2013-02-25 16:23:00,
2013-02-25 11:28:00,47.2,32.7,30.04,East,96,1.0,6.0,57,0.00,,,0.00,Wunderground v.1.15,2013-02-25 16:28:00,
2013-02-25 11:33:00,47.1,32.2,30.04,ENE,71,3.0,3.0,56,0.00,,,0.00,Wunderground v.1.15,2013-02-25 16:33:00,
2013-02-25 11:38:00,47.0,33.0,30.05,East,95,0.0,7.0,58,0.00,,,0.00,Wunderground v.1.15,2013-02-25 16:38:00,
2013-02-25 11:43:00,47.0,32.5,30.04,East,97,5.0,5.0,57,0.00,,,0.00,Wunderground v.1.15,2013-02-25 16:43:00,
2013-02-25 11:48:00,47.0,33.0,30.04,East,84,3.0,5.0,58,0.00,,,0.00,Wunderground v.1.15,2013-02-25 16:48:00,
2013-02-25 11:53:00,47.1,33.1,30.04,East,88,3.0,3.0,58,0.00,,,0.00,Wunderground v.1.15,2013-02-25 16:53:00,
2013-02-25 11:58:00,47.1,33.1,30.04,East,92,2.0,7.0,58,0.00,,,0.00,Wunderground v.1.15,2013-02-25 16:58:00,
2013-02-25 12:03:00,47.2,33.2,30.03,ESE,112,0.0,1.0,58,0.00,,,0.00,Wunderground v.1.15,2013-02-25 17:03:00,
2013-02-25 12:08:00,47.2,32.7,30.03,ESE,111,0.0,6.0,57,0.00,,,0.00,Wunderground v.1.15,2013-02-25 17:08:00,
2013-02-25 12:13:00,47.2,33.2,30.03,East,84,0.0,1.0,58,0.00,,,0.00,Wunderground v.1.15,2013-02-25 17:13:00,
2013-02-25 12:18:00,47.3,33.7,30.03,ENE,78,0.0,3.0,59,0.00,,,0.00,Wunderground v.1.15,2013-02-25 17:18:00,
2013-02-25 12:23:00,47.3,33.3,30.03,South,173,0.0,2.0,58,0.00,,,0.00,Wunderground v.1.15,2013-02-25 17:23:00,
2013-02-25 12:28:00,47.4,33.8,30.03,East,81,4.0,5.0,59,0.00,,,0.00,Wunderground v.1.15,2013-02-25 17:28:00,
2013-02-25 12:33:00,47.3,33.3,30.02,East,92,0.0,2.0,58,0.00,,,0.00,Wunderground v.1.15,2013-02-25 17:33:00,
2013-02-25 12:38:00,47.2,33.2,30.02,ENE,75,4.0,6.0,58,0.00,,,0.00,Wunderground v.1.15,2013-02-25 17:38:00,
2013-02-25 12:43:00,47.2,33.2,30.01,East,80,3.0,5.0,58,0.00,,,0.00,Wunderground v.1.15,2013-02-25 17:43:00,
2013-02-25 12:48:00,47.1,33.1,30.01,East,99,0.0,6.0,58,0.00,,,0.00,Wunderground v.1.15,2013-02-25 17:48:00,
2013-02-25 12:53:00,47.1,33.1,30.01,SE,138,0.0,3.0,58,0.00,,,0.00,Wunderground v.1.15,2013-02-25 17:53:00,
2013-02-25 12:58:00,47.1,33.5,30.02,ENE,76,5.0,5.0,59,0.00,,,0.00,Wunderground v.1.15,2013-02-25 17:58:00,
2013-02-25 13:03:00,47.1,33.5,30.02,SE,124,4.0,6.0,59,0.00,,,0.00,Wunderground v.1.15,2013-02-25 18:03:00,
2013-02-25 13:08:00,47.1,33.5,30.01,East,81,1.0,7.0,59,0.00,,,0.00,Wunderground v.1.15,2013-02-25 18:08:00,
2013-02-25 13:13:00,47.1,33.9,30.00,East,90,0.0,2.0,60,0.00,,,0.00,Wunderground v.1.15,2013-02-25 18:13:00,
2013-02-25 13:18:00,47.2,34.0,30.00,East,80,0.0,2.0,60,0.00,,,0.00,Wunderground v.1.15,2013-02-25 18:18:00,
2013-02-25 13:23:00,47.2,33.6,29.99,SSW,206,2.0,2.0,59,0.00,,,0.00,Wunderground v.1.15,2013-02-25 18:23:00,
2013-02-25 13:28:00,47.2,33.6,29.97,South,178,0.0,4.0,59,0.00,,,0.00,Wunderground v.1.15,2013-02-25 18:28:00,
2013-02-25 13:33:00,47.2,34.0,29.98,ENE,65,0.0,7.0,60,0.00,,,0.00,Wunderground v.1.15,2013-02-25 18:33:00,
2013-02-25 13:38:00,47.1,33.9,29.97,SSE,163,0.0,7.0,60,0.00,,,0.00,Wunderground v.1.15,2013-02-25 18:38:00,
2013-02-25 13:43:00,47.1,33.9,29.93,South,173,0.0,4.0,60,0.00,,,0.00,Wunderground v.1.15,2013-02-25 18:43:00,
2013-02-25 13:48:00,47.2,34.4,29.93,ESE,105,4.0,4.0,61,0.00,,,0.00,Wunderground v.1.15,2013-02-25 18:48:00,
2013-02-25 13:53:00,47.1,33.9,29.95,ENE,65,4.0,5.0,60,0.00,,,0.00,Wunderground v.1.15,2013-02-25 18:53:00,
2013-02-25 13:58:00,46.8,34.0,29.97,ENE,61,8.0,10.0,61,0.00,,,0.00,Wunderground v.1.15,2013-02-25 18:58:00,
2013-02-25 14:03:00,46.5,34.2,29.97,ENE,69,4.0,8.0,62,0.00,,,0.00,Wunderground v.1.15,2013-02-25 19:03:00,
2013-02-25 14:08:00,46.4,34.5,29.97,East,84,4.0,8.0,63,0.00,,,0.00,Wunderground v.1.15,2013-02-25 19:08:00,
2013-02-25 14:13:00,46.4,34.5,29.96,East,84,3.0,6.0,63,0.00,,,0.00,Wunderground v.1.15,2013-02-25 19:13:00,
2013-02-25 14:18:00,46.3,34.4,29.97,ENE,67,4.0,8.0,63,0.00,,,0.00,Wunderground v.1.15,2013-02-25 19:18:00,
2013-02-25 14:23:00,46.3,34.4,29.98,ENE,70,5.0,8.0,63,0.00,,,0.00,Wunderground v.1.15,2013-02-25 19:23:00,
2013-02-25 14:28:00,46.2,34.7,29.96,SE,130,1.0,8.0,64,0.00,,,0.00,Wunderground v.1.15,2013-02-25 19:28:00,
2013-02-25 14:33:00,46.2,34.7,29.97,NE,48,5.0,6.0,64,0.00,,,0.00,Wunderground v.1.15,2013-02-25 19:33:00,
2013-02-25 14:39:00,46.1,34.6,29.98,NE,38,5.0,9.0,64,0.00,,,0.00,Wunderground v.1.15,2013-02-25 19:39:00,
2013-02-25 14:44:00,46.1,35.0,29.99,ENE,78,4.0,7.0,65,0.00,,,0.00,Wunderground v.1.15,2013-02-25 19:44:00,
2013-02-25 14:49:00,45.9,34.8,30.00,ENE,78,4.0,9.0,65,0.00,,,0.00,Wunderground v.1.15,2013-02-25 19:49:00,
2013-02-25 14:54:00,45.9,34.8,30.00,ENE,73,6.0,6.0,65,0.00,,,0.00,Wunderground v.1.15,2013-02-25 19:54:00,
2013-02-25 14:59:00,45.8,34.7,30.01,ENE,78,3.0,6.0,65,0.00,,,0.00,Wunderground v.1.15,2013-02-25 19:59:00,
2013-02-25 15:04:00,45.7,35.0,29.99,East,96,1.0,6.0,66,0.00,,,0.00,Wunderground v.1.15,2013-02-25 20:04:00,
2013-02-25 15:09:00,45.8,35.1,30.00,ENE,77,5.0,6.0,66,0.00,,,0.00,Wunderground v.1.15,2013-02-25 20:09:00,
2013-02-25 15:14:00,45.8,35.1,29.99,ESE,109,5.0,7.0,66,0.00,,,0.00,Wunderground v.1.15,2013-02-25 20:14:00,
2013-02-25 15:19:00,45.8,35.1,29.98,SSE,147,0.0,7.0,66,0.00,,,0.00,Wunderground v.1.15,2013-02-25 20:19:00,
2013-02-25 15:24:00,45.8,35.5,29.99,ENE,75,3.0,5.0,67,0.00,,,0.00,Wunderground v.1.15,2013-02-25 20:24:00,
2013-02-25 15:29:00,45.8,35.5,29.98,East,83,2.0,5.0,67,0.00,,,0.00,Wunderground v.1.15,2013-02-25 20:29:00,
2013-02-25 15:34:00,45.9,35.6,29.98,ESE,116,4.0,5.0,67,0.00,,,0.00,Wunderground v.1.15,2013-02-25 20:34:00,
2013-02-25 15:39:00,45.8,35.1,29.98,East,96,4.0,8.0,66,0.00,,,0.00,Wunderground v.1.15,2013-02-25 20:39:00,
2013-02-25 15:44:00,45.7,35.4,29.99,ENE,64,4.0,5.0,67,0.00,,,0.00,Wunderground v.1.15,2013-02-25 20:44:00,
2013-02-25 15:49:00,45.7,35.7,29.99,East,90,4.0,7.0,68,0.00,,,0.00,Wunderground v.1.15,2013-02-25 20:49:00,
2013-02-25 15:54:00,45.6,35.3,29.98,ENE,76,6.0,6.0,67,0.00,,,0.00,Wunderground v.1.15,2013-02-25 20:54:00,
2013-02-25 15:59:00,45.6,35.3,29.99,East,92,5.0,7.0,67,0.00,,,0.00,Wunderground v.1.15,2013-02-25 20:59:00,
2013-02-25 16:05:00,45.6,35.6,29.98,ENE,65,6.0,8.0,68,0.00,,,0.00,Wunderground v.1.15,2013-02-25 21:05:00,
2013-02-25 16:10:00,45.5,35.5,29.98,East,84,3.0,8.0,68,0.00,,,0.00,Wunderground v.1.15,2013-02-25 21:10:00,
2013-02-25 16:15:00,45.6,35.6,29.98,East,88,0.0,3.0,68,0.00,,,0.00,Wunderground v.1.15,2013-02-25 21:15:00,
2013-02-25 16:20:00,45.7,35.7,29.99,ENE,62,0.0,3.0,68,0.00,,,0.00,Wunderground v.1.15,2013-02-25 21:20:00,
2013-02-25 16:25:00,45.7,35.7,29.99,East,89,1.0,3.0,68,0.00,,,0.00,Wunderground v.1.15,2013-02-25 21:25:00,
2013-02-25 16:30:00,45.6,35.6,29.99,ESE,123,0.0,6.0,68,0.00,,,0.00,Wunderground v.1.15,2013-02-25 21:30:00,
2013-02-25 16:35:00,45.6,35.6,29.99,East,85,2.0,3.0,68,0.00,,,0.00,Wunderground v.1.15,2013-02-25 21:35:00,
2013-02-25 16:40:00,45.5,35.9,29.99,East,82,3.0,5.0,69,0.00,,,0.00,Wunderground v.1.15,2013-02-25 21:40:00,
2013-02-25 16:45:00,45.4,35.5,29.99,ENE,77,6.0,8.0,68,0.00,,,0.00,Wunderground v.1.15,2013-02-25 21:45:00,
2013-02-25 16:50:00,45.2,35.6,29.99,SE,124,1.0,8.0,69,0.00,,,0.00,Wunderground v.1.15,2013-02-25 21:50:00,
2013-02-25 16:55:00,45.1,35.5,29.98,ENE,66,3.0,11.0,69,0.00,,,0.00,Wunderground v.1.15,2013-02-25 21:55:00,
2013-02-25 17:00:00,45.0,35.4,29.98,ENE,76,1.0,11.0,69,0.00,,,0.00,Wunderground v.1.15,2013-02-25 22:00:00,
2013-02-25 17:05:00,44.9,35.3,29.98,ENE,76,4.0,8.0,69,0.00,,,0.00,Wunderground v.1.15,2013-02-25 22:05:00,
2013-02-25 17:10:00,44.9,35.7,29.98,SSW,192,3.0,8.0,70,0.00,,,0.00,Wunderground v.1.15,2013-02-25 22:10:00,
2013-02-25 17:15:00,44.8,35.2,29.98,East,81,1.0,5.0,69,0.00,,,0.00,Wunderground v.1.15,2013-02-25 22:15:00,
2013-02-25 17:20:00,44.7,35.1,29.97,NE,40,2.0,6.0,69,0.00,,,0.00,Wunderground v.1.15,2013-02-25 22:20:00,
2013-02-25 17:25:00,44.7,35.1,29.98,ENE,69,2.0,12.0,69,0.00,,,0.00,Wunderground v.1.15,2013-02-25 22:25:00,
2013-02-25 17:30:00,44.6,35.1,29.97,East,101,1.0,12.0,69,0.00,,,0.00,Wunderground v.1.15,2013-02-25 22:30:00,
2013-02-25 17:35:00,44.5,35.0,29.97,East,89,3.0,6.0,69,0.00,,,0.00,Wunderground v.1.15,2013-02-25 22:35:00,
2013-02-25 17:40:00,44.4,35.2,29.97,ENE,69,1.0,7.0,70,0.00,,,0.00,Wunderground v.1.15,2013-02-25 22:40:00,
2013-02-25 17:45:00,44.3,35.1,29.97,East,101,0.0,5.0,70,0.00,,,0.00,Wunderground v.1.15,2013-02-25 22:45:00,
2013-02-25 17:50:00,44.2,35.0,29.96,ESE,113,2.0,7.0,70,0.00,,,0.00,Wunderground v.1.15,2013-02-25 22:50:00,
2013-02-25 17:55:00,44.2,35.0,29.96,ENE,68,3.0,6.0,70,0.00,,,0.00,Wunderground v.1.15,2013-02-25 22:55:00,
2013-02-25 18:00:00,44.1,34.9,29.95,East,92,1.0,6.0,70,0.00,,,0.00,Wunderground v.1.15,2013-02-25 23:00:00,
2013-02-25 18:05:00,44.1,35.3,29.96,ENE,73,0.0,5.0,71,0.00,,,0.00,Wunderground v.1.15,2013-02-25 23:05:00,
2013-02-25 18:10:00,44.0,35.2,29.96,SE,130,0.0,5.0,71,0.00,,,0.00,Wunderground v.1.15,2013-02-25 23:10:00,
2013-02-25 18:15:00,44.0,35.6,29.96,SE,126,0.0,4.0,72,0.00,,,0.00,Wunderground v.1.15,2013-02-25 23:15:00,
2013-02-25 18:20:00,43.9,35.1,29.96,ENE,77,3.0,6.0,71,0.00,,,0.00,Wunderground v.1.15,2013-02-25 23:20:00,
2013-02-25 18:25:00,43.9,35.5,29.96,SSE,162,4.0,5.0,72,0.00,,,0.00,Wunderground v.1.15,2013-02-25 23:25:00,
2013-02-25 18:30:00,43.8,35.0,29.97,East,94,0.0,8.0,71,0.00,,,0.00,Wunderground v.1.15,2013-02-25 23:30:00,
2013-02-25 18:35:00,43.7,34.9,29.96,East,96,5.0,5.0,71,0.00,,,0.00,Wunderground v.1.15,2013-02-25 23:35:00,
2013-02-25 18:41:00,43.7,34.9,29.97,SSW,210,0.0,6.0,71,0.00,,,0.00,Wunderground v.1.15,2013-02-25 23:41:00,
2013-02-25 18:46:00,43.6,34.8,29.97,ESE,117,0.0,6.0,71,0.00,,,0.00,Wunderground v.1.15,2013-02-25 23:46:00,
2013-02-25 18:51:00,43.6,34.8,29.97,ENE,71,4.0,6.0,71,0.00,,,0.00,Wunderground v.1.15,2013-02-25 23:51:00,
2013-02-25 18:56:00,43.5,34.7,29.97,ENE,66,7.0,8.0,71,0.00,,,0.00,Wunderground v.1.15,2013-02-25 23:56:00,
2013-02-25 19:01:00,43.4,34.6,29.97,ESE,114,2.0,11.0,71,0.00,,,0.00,Wunderground v.1.15,2013-02-26 00:01:00,
2013-02-25 19:06:00,43.4,34.6,29.97,ESE,123,0.0,4.0,71,0.00,,,0.00,Wunderground v.1.15,2013-02-26 00:06:00,
2013-02-25 19:11:00,43.4,34.6,29.97,East,100,1.0,5.0,71,0.00,,,0.00,Wunderground v.1.15,2013-02-26 00:11:00,
2013-02-25 19:16:00,43.3,34.9,29.97,SE,125,0.0,7.0,72,0.00,,,0.00,Wunderground v.1.15,2013-02-26 00:16:00,
2013-02-25 19:21:00,43.3,34.9,29.97,ESE,123,0.0,7.0,72,0.00,,,0.00,Wunderground v.1.15,2013-02-26 00:21:00,
2013-02-25 19:26:00,43.3,34.9,29.97,East,95,0.0,6.0,72,0.00,,,0.00,Wunderground v.1.15,2013-02-26 00:26:00,
2013-02-25 19:31:00,43.3,34.9,29.97,SSW,203,2.0,6.0,72,0.00,,,0.00,Wunderground v.1.15,2013-02-26 00:31:00,
2013-02-25 19:36:00,43.2,34.8,29.97,ESE,107,0.0,5.0,72,0.00,,,0.00,Wunderground v.1.15,2013-02-26 00:36:00,
2013-02-25 19:41:00,43.2,34.8,29.97,SE,126,0.0,7.0,72,0.00,,,0.00,Wunderground v.1.15,2013-02-26 00:41:00,
2013-02-25 19:46:00,43.2,35.1,29.97,ENE,68,2.0,4.0,73,0.00,,,0.00,Wunderground v.1.15,2013-02-26 00:46:00,
2013-02-25 19:51:00,43.1,35.0,29.97,East,89,0.0,5.0,73,0.00,,,0.00,Wunderground v.1.15,2013-02-26 00:51:00,
2013-02-25 19:56:00,43.1,35.0,29.97,SE,138,0.0,4.0,73,0.00,,,0.00,Wunderground v.1.15,2013-02-26 00:56:00,
2013-02-25 20:01:00,43.1,35.0,29.97,North,5,1.0,6.0,73,0.00,,,0.00,Wunderground v.1.15,2013-02-26 01:01:00,
2013-02-25 20:06:00,43.1,35.0,29.96,East,95,2.0,4.0,73,0.00,,,0.00,Wunderground v.1.15,2013-02-26 01:06:00,
2013-02-25 20:11:00,43.0,35.3,29.97,East,95,2.0,5.0,74,0.00,,,0.00,Wunderground v.1.15,2013-02-26 01:11:00,
2013-02-25 20:16:00,42.9,35.2,29.97,ENE,76,2.0,6.0,74,0.00,,,0.00,Wunderground v.1.15,2013-02-26 01:16:00,
2013-02-25 20:21:00,42.9,35.2,29.97,SSW,194,0.0,7.0,74,0.00,,,0.00,Wunderground v.1.15,2013-02-26 01:21:00,
2013-02-25 20:26:00,42.9,35.2,29.97,SSE,156,0.0,11.0,74,0.00,,,0.00,Wunderground v.1.15,2013-02-26 01:26:00,
2013-02-25 20:31:00,42.8,35.4,29.97,SE,139,0.0,11.0,75,0.00,,,0.00,Wunderground v.1.15,2013-02-26 01:31:00,
2013-02-25 20:36:00,42.8,35.4,29.97,NE,56,2.0,4.0,75,0.00,,,0.00,Wunderground v.1.15,2013-02-26 01:36:00,
2013-02-25 20:41:00,42.8,35.8,29.98,East,99,0.0,4.0,76,0.00,,,0.00,Wunderground v.1.15,2013-02-26 01:41:00,
2013-02-25 20:46:00,42.7,35.7,29.98,SW,229,0.0,4.0,76,0.00,,,0.00,Wunderground v.1.15,2013-02-26 01:46:00,
2013-02-25 20:51:00,42.7,35.7,29.98,East,93,2.0,2.0,76,0.00,,,0.00,Wunderground v.1.15,2013-02-26 01:51:00,
2013-02-25 20:56:00,42.6,35.6,29.98,ESE,104,0.0,4.0,76,0.00,,,0.00,Wunderground v.1.15,2013-02-26 01:56:00,
2013-02-25 21:01:00,42.5,35.8,29.97,East,91,1.0,1.0,77,0.00,,,0.00,Wunderground v.1.15,2013-02-26 02:01:00,
2013-02-25 21:06:00,42.4,35.7,29.98,East,100,0.0,6.0,77,0.00,,,0.00,Wunderground v.1.15,2013-02-26 02:06:00,
2013-02-25 21:11:00,42.3,35.9,29.97,ESE,115,6.0,6.0,78,0.00,,,0.00,Wunderground v.1.15,2013-02-26 02:11:00,
2013-02-25 21:16:00,42.3,35.9,29.97,NE,50,0.0,6.0,78,0.00,,,0.00,Wunderground v.1.15,2013-02-26 02:16:00,
2013-02-25 21:21:00,42.2,35.8,29.97,ESE,122,2.0,4.0,78,0.00,,,0.00,Wunderground v.1.15,2013-02-26 02:21:00,
2013-02-25 21:26:00,42.2,35.8,29.97,ESE,115,0.0,4.0,78,0.00,,,0.00,Wunderground v.1.15,2013-02-26 02:26:00,
2013-02-25 21:31:00,42.1,36.1,29.97,East,85,1.0,3.0,79,0.00,,,0.00,Wunderground v.1.15,2013-02-26 02:31:00,
2013-02-25 21:37:00,42.1,36.1,29.96,East,84,1.0,5.0,79,0.00,,,0.00,Wunderground v.1.15,2013-02-26 02:37:00,
2013-02-25 21:42:00,42.0,36.0,29.96,East,84,0.0,2.0,79,0.00,,,0.00,Wunderground v.1.15,2013-02-26 02:42:00,
2013-02-25 21:47:00,41.9,35.9,29.96,East,91,2.0,6.0,79,0.00,,,0.00,Wunderground v.1.15,2013-02-26 02:47:00,
2013-02-25 21:52:00,41.7,36.0,29.96,ENE,73,3.0,4.0,80,0.00,,,0.00,Wunderground v.1.15,2013-02-26 02:52:00,
2013-02-25 21:57:00,41.6,35.9,29.96,ENE,74,4.0,8.0,80,0.00,,,0.00,Wunderground v.1.15,2013-02-26 02:57:00,
2013-02-25 22:02:00,41.5,35.8,29.96,ENE,70,3.0,6.0,80,0.00,,,0.00,Wunderground v.1.15,2013-02-26 03:02:00,
2013-02-25 22:07:00,41.3,35.9,29.96,ESE,122,1.0,6.0,81,0.00,,,0.00,Wunderground v.1.15,2013-02-26 03:07:00,
2013-02-25 22:12:00,41.2,36.4,29.96,ENE,72,2.0,3.0,83,0.00,,,0.00,Wunderground v.1.15,2013-02-26 03:12:00,
2013-02-25 22:17:00,41.0,36.2,29.96,East,92,5.0,5.0,83,0.00,,,0.00,Wunderground v.1.15,2013-02-26 03:17:00,
2013-02-25 22:22:00,40.8,36.3,29.96,ENE,78,1.0,3.0,84,0.00,,,0.00,Wunderground v.1.15,2013-02-26 03:22:00,
2013-02-25 22:27:00,40.6,36.4,29.96,ENE,65,2.0,7.0,85,0.00,,,0.00,Wunderground v.1.15,2013-02-26 03:27:00,
2013-02-25 22:32:00,40.5,36.3,29.97,East,82,2.0,3.0,85,0.00,,,0.00,Wunderground v.1.15,2013-02-26 03:32:00,
2013-02-25 22:37:00,40.4,36.2,29.96,East,80,2.0,7.0,85,0.00,,,0.00,Wunderground v.1.15,2013-02-26 03:37:00,
2013-02-25 22:42:00,40.4,36.2,29.96,East,84,0.0,3.0,85,0.00,,,0.00,Wunderground v.1.15,2013-02-26 03:42:00,
2013-02-25 22:47:00,40.4,36.5,29.96,ENE,70,1.0,5.0,86,0.00,,,0.00,Wunderground v.1.15,2013-02-26 03:47:00,
2013-02-25 22:48:00,45.7,30.4,30.26,NE,36,4.0,4.0,55,0.00,,,0.00,Wunderground v.1.15,2013-02-26 03:48:00,
2013-02-25 22:49:00,45.8,30.1,30.26,NE,43,3.0,5.0,54,0.00,,,0.00,Wunderground v.1.15,2013-02-26 03:49:00,
2013-02-25 22:50:00,46.0,30.3,30.26,NE,43,2.0,2.0,54,0.00,,,0.00,Wunderground v.1.15,2013-02-26 03:50:00,
2013-02-25 22:51:00,46.2,30.5,30.26,NE,52,2.0,3.0,54,0.00,,,0.00,Wunderground v.1.15,2013-02-26 03:51:00,
2013-02-25 22:52:00,40.3,36.4,29.95,East,80,5.0,7.0,86,0.00,,,0.00,Wunderground v.1.15,2013-02-26 03:52:00,
2013-02-25 22:53:00,46.5,29.8,30.26,NE,52,2.0,3.0,52,0.00,,,0.00,Wunderground v.1.15,2013-02-26 03:53:00,
2013-02-25 22:54:00,46.8,29.6,30.26,NE,52,3.0,4.0,51,0.00,,,0.00,Wunderground v.1.15,2013-02-26 03:54:00,
2013-02-25 22:55:00,46.8,29.6,30.26,NE,52,1.0,4.0,51,0.00,,,0.00,Wunderground v.1.15,2013-02-26 03:55:00,
2013-02-25 22:57:00,40.2,36.6,29.96,East,82,4.0,7.0,87,0.00,,,0.00,Wunderground v.1.15,2013-02-26 03:57:00,
2013-02-25 23:02:00,40.1,36.5,29.95,ENE,77,1.0,3.0,87,0.00,,,0.00,Wunderground v.1.15,2013-02-26 04:02:00,
2013-02-25 23:07:00,39.9,36.6,29.95,East,82,2.0,8.0,88,0.00,,,0.00,Wunderground v.1.15,2013-02-26 04:07:00,
2013-02-25 23:12:00,39.6,36.6,29.95,East,96,4.0,5.0,89,0.00,,,0.00,Wunderground v.1.15,2013-02-26 04:12:00,
2013-02-25 23:17:00,39.4,36.4,29.94,East,84,0.0,6.0,89,0.00,,,0.00,Wunderground v.1.15,2013-02-26 04:17:00,
2013-02-25 23:22:00,39.3,36.6,29.95,East,83,3.0,3.0,90,0.00,,,0.00,Wunderground v.1.15,2013-02-26 04:22:00,
2013-02-25 23:27:00,39.1,36.4,29.94,East,96,1.0,6.0,90,0.00,,,0.00,Wunderground v.1.15,2013-02-26 04:27:00,
2013-02-25 23:32:00,38.9,36.5,29.94,SE,125,0.0,3.0,91,0.00,,,0.00,Wunderground v.1.15,2013-02-26 04:32:00,
2013-02-25 23:37:00,38.7,36.6,29.94,East,89,2.0,5.0,92,0.00,,,0.00,Wunderground v.1.15,2013-02-26 04:37:00,
2013-02-25 23:42:00,38.7,36.6,29.94,ENE,67,0.0,1.0,92,0.00,,,0.00,Wunderground v.1.15,2013-02-26 04:42:00,
2013-02-25 23:47:00,38.6,36.5,29.94,ENE,67,3.0,4.0,92,0.00,,,0.00,Wunderground v.1.15,2013-02-26 04:47:00,
2013-02-25 23:52:00,38.5,36.4,29.93,East,80,6.0,6.0,92,0.00,,,0.00,Wunderground v.1.15,2013-02-26 04:52:00,
2013-02-25 23:57:00,38.3,36.2,29.93,ENE,78,4.0,6.0,92,0.00,,,0.00,Wunderground v.1.15,2013-02-26 04:57:00,